sensor_id;sensor_type;location;lat;lon;timestamp;temperature;humidity
10986;DHT22;5546;48.714;8.738;2022-11-14T00:00:42;9.00;96.20
10986;DHT22;5546;48.714;8.738;2022-11-14T00:03:08;9.00;96.10
10986;DHT22;5546;48.714;8.738;2022-11-14T00:05:38;9.10;96.30
10986;DHT22;5546;48.714;8.738;2022-11-14T00:08:04;8.90;96.00
10986;DHT22;5546;48.714;8.738;2022-11-14T00:10:30;9.10;95.90
10986;DHT22;5546;48.714;8.738;2022-11-14T00:12:55;9.00;95.60
10986;DHT22;5546;48.714;8.738;2022-11-14T00:15:21;8.50;96.30
10986;DHT22;5546;48.714;8.738;2022-11-14T00:17:46;8.40;96.50
10986;DHT22;5546;48.714;8.738;2022-11-14T00:20:12;8.30;97.10
10986;DHT22;5546;48.714;8.738;2022-11-14T00:22:38;8.20;97.30
10986;DHT22;5546;48.714;8.738;2022-11-14T00:25:04;8.00;97.30
10986;DHT22;5546;48.714;8.738;2022-11-14T00:27:29;7.90;97.70
10986;DHT22;5546;48.714;8.738;2022-11-14T00:29:55;8.10;97.70
10986;DHT22;5546;48.714;8.738;2022-11-14T00:32:20;8.50;97.30
10986;DHT22;5546;48.714;8.738;2022-11-14T00:34:47;8.70;96.60
10986;DHT22;5546;48.714;8.738;2022-11-14T00:37:13;9.00;96.10
10986;DHT22;5546;48.714;8.738;2022-11-14T00:39:38;9.20;95.60
10986;DHT22;5546;48.714;8.738;2022-11-14T00:42:04;9.20;95.90
10986;DHT22;5546;48.714;8.738;2022-11-14T00:44:29;9.40;95.60
10986;DHT22;5546;48.714;8.738;2022-11-14T00:46:55;9.00;95.80
10986;DHT22;5546;48.714;8.738;2022-11-14T00:49:20;8.80;96.20
10986;DHT22;5546;48.714;8.738;2022-11-14T00:51:46;8.30;97.00
10986;DHT22;5546;48.714;8.738;2022-11-14T00:54:11;8.50;97.00
10986;DHT22;5546;48.714;8.738;2022-11-14T00:56:37;8.70;96.60
10986;DHT22;5546;48.714;8.738;2022-11-14T00:59:02;9.00;96.10
10986;DHT22;5546;48.714;8.738;2022-11-14T01:01:28;8.80;96.00
10986;DHT22;5546;48.714;8.738;2022-11-14T01:03:53;8.70;96.10
10986;DHT22;5546;48.714;8.738;2022-11-14T01:06:19;8.70;96.50
10986;DHT22;5546;48.714;8.738;2022-11-14T01:08:45;8.70;96.30
10986;DHT22;5546;48.714;8.738;2022-11-14T01:11:15;8.90;95.70
10986;DHT22;5546;48.714;8.738;2022-11-14T01:13:40;8.90;96.00
10986;DHT22;5546;48.714;8.738;2022-11-14T01:16:06;9.10;95.50
10986;DHT22;5546;48.714;8.738;2022-11-14T01:18:32;8.90;95.80
10986;DHT22;5546;48.714;8.738;2022-11-14T01:20:58;8.90;95.80
10986;DHT22;5546;48.714;8.738;2022-11-14T01:23:23;8.30;96.20
10986;DHT22;5546;48.714;8.738;2022-11-14T01:25:49;8.30;96.50
10986;DHT22;5546;48.714;8.738;2022-11-14T01:28:17;8.40;96.60
10986;DHT22;5546;48.714;8.738;2022-11-14T01:33:09;8.80;95.70
10986;DHT22;5546;48.714;8.738;2022-11-14T01:35:37;8.70;95.80
10986;DHT22;5546;48.714;8.738;2022-11-14T01:38:04;8.70;95.90
10986;DHT22;5546;48.714;8.738;2022-11-14T01:40:30;8.80;96.20
10986;DHT22;5546;48.714;8.738;2022-11-14T01:46:02;9.10;95.60
10986;DHT22;5546;48.714;8.738;2022-11-14T01:48:34;9.00;95.20
10986;DHT22;5546;48.714;8.738;2022-11-14T01:53:36;8.70;96.30
10986;DHT22;5546;48.714;8.738;2022-11-14T01:56:04;8.50;96.20
10986;DHT22;5546;48.714;8.738;2022-11-14T01:58:31;8.20;96.70
10986;DHT22;5546;48.714;8.738;2022-11-14T02:00:58;8.20;96.30
10986;DHT22;5546;48.714;8.738;2022-11-14T02:03:24;7.70;96.80
10986;DHT22;5546;48.714;8.738;2022-11-14T02:05:50;7.40;97.50
10986;DHT22;5546;48.714;8.738;2022-11-14T02:08:16;7.40;97.90
10986;DHT22;5546;48.714;8.738;2022-11-14T02:10:42;7.20;98.60
10986;DHT22;5546;48.714;8.738;2022-11-14T02:13:08;7.30;97.90
10986;DHT22;5546;48.714;8.738;2022-11-14T02:15:34;7.50;97.90
10986;DHT22;5546;48.714;8.738;2022-11-14T02:18:00;7.40;98.20
10986;DHT22;5546;48.714;8.738;2022-11-14T02:20:29;7.30;98.20
10986;DHT22;5546;48.714;8.738;2022-11-14T02:22:58;7.10;98.50
10986;DHT22;5546;48.714;8.738;2022-11-14T02:25:23;7.10;98.80
10986;DHT22;5546;48.714;8.738;2022-11-14T02:27:50;7.30;98.70
10986;DHT22;5546;48.714;8.738;2022-11-14T02:30:19;7.70;97.50
10986;DHT22;5546;48.714;8.738;2022-11-14T02:32:45;7.70;97.80
10986;DHT22;5546;48.714;8.738;2022-11-14T02:35:11;7.70;97.80
10986;DHT22;5546;48.714;8.738;2022-11-14T02:37:37;7.20;98.60
10986;DHT22;5546;48.714;8.738;2022-11-14T02:40:04;7.70;97.80
10986;DHT22;5546;48.714;8.738;2022-11-14T02:42:29;7.70;98.00
10986;DHT22;5546;48.714;8.738;2022-11-14T02:47:21;7.60;97.50
10986;DHT22;5546;48.714;8.738;2022-11-14T02:49:49;7.80;97.50
10986;DHT22;5546;48.714;8.738;2022-11-14T02:52:14;7.80;97.60
10986;DHT22;5546;48.714;8.738;2022-11-14T02:54:40;8.10;97.20
10986;DHT22;5546;48.714;8.738;2022-11-14T02:57:05;8.10;96.80
10986;DHT22;5546;48.714;8.738;2022-11-14T02:59:31;8.20;96.40
10986;DHT22;5546;48.714;8.738;2022-11-14T03:01:56;8.20;96.70
10986;DHT22;5546;48.714;8.738;2022-11-14T03:04:22;8.40;95.50
10986;DHT22;5546;48.714;8.738;2022-11-14T03:06:48;8.30;95.80
10986;DHT22;5546;48.714;8.738;2022-11-14T03:09:13;7.60;96.80
10986;DHT22;5546;48.714;8.738;2022-11-14T03:11:39;7.60;97.70
10986;DHT22;5546;48.714;8.738;2022-11-14T03:14:04;7.50;97.40
10986;DHT22;5546;48.714;8.738;2022-11-14T03:16:30;7.00;98.40
10986;DHT22;5546;48.714;8.738;2022-11-14T03:18:55;6.90;98.40
10986;DHT22;5546;48.714;8.738;2022-11-14T03:21:23;6.90;98.90
10986;DHT22;5546;48.714;8.738;2022-11-14T03:23:48;6.90;99.20
10986;DHT22;5546;48.714;8.738;2022-11-14T03:26:15;6.60;99.40
10986;DHT22;5546;48.714;8.738;2022-11-14T03:28:41;6.60;99.70
10986;DHT22;5546;48.714;8.738;2022-11-14T03:31:08;6.90;99.60
10986;DHT22;5546;48.714;8.738;2022-11-14T03:33:35;7.40;98.80
10986;DHT22;5546;48.714;8.738;2022-11-14T03:36:01;7.60;98.20
10986;DHT22;5546;48.714;8.738;2022-11-14T03:38:27;7.70;97.50
10986;DHT22;5546;48.714;8.738;2022-11-14T03:40:53;7.80;97.40
10986;DHT22;5546;48.714;8.738;2022-11-14T03:43:19;7.80;97.60
10986;DHT22;5546;48.714;8.738;2022-11-14T03:45:46;7.70;97.60
10986;DHT22;5546;48.714;8.738;2022-11-14T03:48:12;7.90;97.40
10986;DHT22;5546;48.714;8.738;2022-11-14T03:50:37;7.80;97.60
10986;DHT22;5546;48.714;8.738;2022-11-14T03:53:03;7.60;97.50
10986;DHT22;5546;48.714;8.738;2022-11-14T03:55:29;7.50;97.40
10986;DHT22;5546;48.714;8.738;2022-11-14T03:57:54;7.60;97.50
10986;DHT22;5546;48.714;8.738;2022-11-14T04:00:20;7.20;97.60
10986;DHT22;5546;48.714;8.738;2022-11-14T04:02:46;7.10;98.40
10986;DHT22;5546;48.714;8.738;2022-11-14T04:05:12;7.20;98.10
10986;DHT22;5546;48.714;8.738;2022-11-14T04:07:38;7.10;97.80
10986;DHT22;5546;48.714;8.738;2022-11-14T04:10:04;7.10;98.10
10986;DHT22;5546;48.714;8.738;2022-11-14T04:12:30;7.10;98.10
10986;DHT22;5546;48.714;8.738;2022-11-14T04:14:55;7.20;97.60
10986;DHT22;5546;48.714;8.738;2022-11-14T04:17:21;7.10;97.60
10986;DHT22;5546;48.714;8.738;2022-11-14T04:19:46;6.60;98.10
10986;DHT22;5546;48.714;8.738;2022-11-14T04:22:12;6.50;98.30
10986;DHT22;5546;48.714;8.738;2022-11-14T04:24:37;6.70;98.40
10986;DHT22;5546;48.714;8.738;2022-11-14T04:27:03;6.70;98.40
10986;DHT22;5546;48.714;8.738;2022-11-14T04:29:28;6.70;98.20
10986;DHT22;5546;48.714;8.738;2022-11-14T04:31:54;6.50;98.80
10986;DHT22;5546;48.714;8.738;2022-11-14T04:34:20;7.00;97.60
10986;DHT22;5546;48.714;8.738;2022-11-14T04:36:45;7.10;97.90
10986;DHT22;5546;48.714;8.738;2022-11-14T04:39:11;7.10;97.60
10986;DHT22;5546;48.714;8.738;2022-11-14T04:41:36;7.10;97.80
10986;DHT22;5546;48.714;8.738;2022-11-14T04:44:02;7.20;97.90
10986;DHT22;5546;48.714;8.738;2022-11-14T04:46:27;7.50;97.20
10986;DHT22;5546;48.714;8.738;2022-11-14T04:48:53;7.70;96.40
10986;DHT22;5546;48.714;8.738;2022-11-14T04:51:18;7.70;96.60
10986;DHT22;5546;48.714;8.738;2022-11-14T04:53:44;7.70;96.70
10986;DHT22;5546;48.714;8.738;2022-11-14T04:56:09;7.60;96.70
10986;DHT22;5546;48.714;8.738;2022-11-14T04:58:35;7.20;97.50
10986;DHT22;5546;48.714;8.738;2022-11-14T05:01:07;7.70;97.00
10986;DHT22;5546;48.714;8.738;2022-11-14T05:03:33;7.70;97.10
10986;DHT22;5546;48.714;8.738;2022-11-14T05:06:02;7.60;96.70
10986;DHT22;5546;48.714;8.738;2022-11-14T05:08:28;7.60;96.90
10986;DHT22;5546;48.714;8.738;2022-11-14T05:10:53;8.10;96.10
10986;DHT22;5546;48.714;8.738;2022-11-14T05:13:19;8.10;96.30
10986;DHT22;5546;48.714;8.738;2022-11-14T05:15:44;7.90;96.20
10986;DHT22;5546;48.714;8.738;2022-11-14T05:18:10;8.00;96.60
10986;DHT22;5546;48.714;8.738;2022-11-14T05:20:36;7.60;96.90
10986;DHT22;5546;48.714;8.738;2022-11-14T05:23:02;7.30;97.80
10986;DHT22;5546;48.714;8.738;2022-11-14T05:25:28;7.10;98.00
10986;DHT22;5546;48.714;8.738;2022-11-14T05:27:53;7.00;98.30
10986;DHT22;5546;48.714;8.738;2022-11-14T05:30:19;7.50;97.80
10986;DHT22;5546;48.714;8.738;2022-11-14T05:32:44;7.40;97.70
10986;DHT22;5546;48.714;8.738;2022-11-14T05:35:10;7.40;98.10
10986;DHT22;5546;48.714;8.738;2022-11-14T05:37:36;7.80;97.20
10986;DHT22;5546;48.714;8.738;2022-11-14T05:40:02;7.70;97.70
10986;DHT22;5546;48.714;8.738;2022-11-14T05:42:28;7.60;97.70
10986;DHT22;5546;48.714;8.738;2022-11-14T05:44:54;7.90;97.20
10986;DHT22;5546;48.714;8.738;2022-11-14T05:47:19;7.90;97.40
10986;DHT22;5546;48.714;8.738;2022-11-14T05:49:45;7.60;97.60
10986;DHT22;5546;48.714;8.738;2022-11-14T05:52:10;7.50;97.50
10986;DHT22;5546;48.714;8.738;2022-11-14T05:54:36;7.60;97.90
10986;DHT22;5546;48.714;8.738;2022-11-14T05:57:02;7.70;97.80
10986;DHT22;5546;48.714;8.738;2022-11-14T05:59:28;7.30;97.60
10986;DHT22;5546;48.714;8.738;2022-11-14T06:01:53;7.30;97.80
10986;DHT22;5546;48.714;8.738;2022-11-14T06:04:19;7.40;97.80
10986;DHT22;5546;48.714;8.738;2022-11-14T06:06:44;7.70;97.10
10986;DHT22;5546;48.714;8.738;2022-11-14T06:09:10;7.70;97.40
10986;DHT22;5546;48.714;8.738;2022-11-14T06:11:35;7.60;97.70
10986;DHT22;5546;48.714;8.738;2022-11-14T06:14:01;7.30;97.90
10986;DHT22;5546;48.714;8.738;2022-11-14T06:16:27;7.20;98.40
10986;DHT22;5546;48.714;8.738;2022-11-14T06:18:53;7.20;98.60
10986;DHT22;5546;48.714;8.738;2022-11-14T06:21:20;7.30;98.30
10986;DHT22;5546;48.714;8.738;2022-11-14T06:23:47;7.20;98.70
10986;DHT22;5546;48.714;8.738;2022-11-14T06:26:26;7.60;98.20
10986;DHT22;5546;48.714;8.738;2022-11-14T06:28:56;8.00;97.60
10986;DHT22;5546;48.714;8.738;2022-11-14T06:31:22;8.00;97.90
10986;DHT22;5546;48.714;8.738;2022-11-14T06:33:48;8.20;97.40
10986;DHT22;5546;48.714;8.738;2022-11-14T06:36:14;8.40;97.30
10986;DHT22;5546;48.714;8.738;2022-11-14T06:38:41;8.60;97.10
10986;DHT22;5546;48.714;8.738;2022-11-14T06:41:15;8.30;97.30
10986;DHT22;5546;48.714;8.738;2022-11-14T06:43:46;8.50;96.90
10986;DHT22;5546;48.714;8.738;2022-11-14T06:46:15;8.60;96.70
10986;DHT22;5546;48.714;8.738;2022-11-14T06:48:41;8.70;96.50
10986;DHT22;5546;48.714;8.738;2022-11-14T06:51:09;8.70;96.70
10986;DHT22;5546;48.714;8.738;2022-11-14T06:53:35;8.90;96.50
10986;DHT22;5546;48.714;8.738;2022-11-14T06:56:07;8.90;96.50
10986;DHT22;5546;48.714;8.738;2022-11-14T06:58:37;8.80;96.70
10986;DHT22;5546;48.714;8.738;2022-11-14T07:03:36;9.50;95.60
10986;DHT22;5546;48.714;8.738;2022-11-14T07:06:02;9.60;95.50
10986;DHT22;5546;48.714;8.738;2022-11-14T07:08:28;9.90;95.00
10986;DHT22;5546;48.714;8.738;2022-11-14T07:11:03;10.00;94.80
10986;DHT22;5546;48.714;8.738;2022-11-14T07:13:30;9.90;94.80
10986;DHT22;5546;48.714;8.738;2022-11-14T07:15:55;9.90;95.00
10986;DHT22;5546;48.714;8.738;2022-11-14T07:18:21;9.20;95.40
10986;DHT22;5546;48.714;8.738;2022-11-14T07:20:47;9.10;95.70
10986;DHT22;5546;48.714;8.738;2022-11-14T07:23:13;8.80;96.80
10986;DHT22;5546;48.714;8.738;2022-11-14T07:25:39;8.80;97.00
10986;DHT22;5546;48.714;8.738;2022-11-14T07:28:04;9.00;96.40
10986;DHT22;5546;48.714;8.738;2022-11-14T07:30:31;9.00;96.60
10986;DHT22;5546;48.714;8.738;2022-11-14T07:32:57;8.70;96.70
10986;DHT22;5546;48.714;8.738;2022-11-14T07:35:23;9.00;96.30
10986;DHT22;5546;48.714;8.738;2022-11-14T07:37:49;9.00;96.30
10986;DHT22;5546;48.714;8.738;2022-11-14T07:40:15;9.00;96.60
10986;DHT22;5546;48.714;8.738;2022-11-14T07:42:41;8.80;96.70
10986;DHT22;5546;48.714;8.738;2022-11-14T07:45:08;8.50;97.30
10986;DHT22;5546;48.714;8.738;2022-11-14T07:47:33;8.60;97.20
10986;DHT22;5546;48.714;8.738;2022-11-14T07:49:59;8.60;97.50
10986;DHT22;5546;48.714;8.738;2022-11-14T07:52:24;8.90;97.10
10986;DHT22;5546;48.714;8.738;2022-11-14T07:54:50;9.20;96.40
10986;DHT22;5546;48.714;8.738;2022-11-14T07:57:15;9.20;97.00
10986;DHT22;5546;48.714;8.738;2022-11-14T07:59:41;9.30;96.40
10986;DHT22;5546;48.714;8.738;2022-11-14T08:02:11;8.80;96.70
10986;DHT22;5546;48.714;8.738;2022-11-14T08:04:38;8.70;97.00
10986;DHT22;5546;48.714;8.738;2022-11-14T08:07:04;8.70;97.20
10986;DHT22;5546;48.714;8.738;2022-11-14T08:09:29;8.70;97.50
10986;DHT22;5546;48.714;8.738;2022-11-14T08:11:55;8.70;97.50
10986;DHT22;5546;48.714;8.738;2022-11-14T08:14:20;8.60;97.40
10986;DHT22;5546;48.714;8.738;2022-11-14T08:16:46;8.60;97.70
10986;DHT22;5546;48.714;8.738;2022-11-14T08:19:12;9.10;97.00
10986;DHT22;5546;48.714;8.738;2022-11-14T08:21:37;9.20;96.70
10986;DHT22;5546;48.714;8.738;2022-11-14T08:24:03;9.20;96.90
10986;DHT22;5546;48.714;8.738;2022-11-14T08:26:28;9.30;97.00
10986;DHT22;5546;48.714;8.738;2022-11-14T08:28:54;9.50;96.30
10986;DHT22;5546;48.714;8.738;2022-11-14T08:31:20;9.50;96.40
10986;DHT22;5546;48.714;8.738;2022-11-14T08:33:46;9.40;96.40
10986;DHT22;5546;48.714;8.738;2022-11-14T08:36:14;9.10;97.20
10986;DHT22;5546;48.714;8.738;2022-11-14T08:38:39;9.10;97.10
10986;DHT22;5546;48.714;8.738;2022-11-14T08:41:05;9.10;97.40
10986;DHT22;5546;48.714;8.738;2022-11-14T08:43:30;9.10;97.50
10986;DHT22;5546;48.714;8.738;2022-11-14T08:45:58;9.10;97.30
10986;DHT22;5546;48.714;8.738;2022-11-14T08:48:24;9.00;97.70
10986;DHT22;5546;48.714;8.738;2022-11-14T08:50:50;9.00;98.00
10986;DHT22;5546;48.714;8.738;2022-11-14T08:53:15;8.90;97.90
10986;DHT22;5546;48.714;8.738;2022-11-14T08:55:44;8.90;98.10
10986;DHT22;5546;48.714;8.738;2022-11-14T08:58:10;9.00;97.80
10986;DHT22;5546;48.714;8.738;2022-11-14T09:00:36;9.60;97.70
10986;DHT22;5546;48.714;8.738;2022-11-14T09:03:09;9.90;96.90
10986;DHT22;5546;48.714;8.738;2022-11-14T09:05:38;10.20;96.90
10986;DHT22;5546;48.714;8.738;2022-11-14T09:08:04;10.20;97.20
10986;DHT22;5546;48.714;8.738;2022-11-14T09:10:29;10.30;96.80
10986;DHT22;5546;48.714;8.738;2022-11-14T09:12:59;9.80;96.90
10986;DHT22;5546;48.714;8.738;2022-11-14T09:15:27;9.90;97.00
10986;DHT22;5546;48.714;8.738;2022-11-14T09:17:53;9.90;97.20
10986;DHT22;5546;48.714;8.738;2022-11-14T09:20:20;10.10;97.20
10986;DHT22;5546;48.714;8.738;2022-11-14T09:22:45;10.20;96.90
10986;DHT22;5546;48.714;8.738;2022-11-14T09:25:11;10.20;97.20
10986;DHT22;5546;48.714;8.738;2022-11-14T09:27:37;10.50;97.00
10986;DHT22;5546;48.714;8.738;2022-11-14T09:30:03;10.60;96.90
10986;DHT22;5546;48.714;8.738;2022-11-14T09:32:29;10.70;96.50
10986;DHT22;5546;48.714;8.738;2022-11-14T09:34:54;10.80;96.50
10986;DHT22;5546;48.714;8.738;2022-11-14T09:37:20;10.80;96.80
10986;DHT22;5546;48.714;8.738;2022-11-14T09:39:45;10.50;96.50
10986;DHT22;5546;48.714;8.738;2022-11-14T09:42:39;10.50;97.00
10986;DHT22;5546;48.714;8.738;2022-11-14T09:45:14;10.50;97.30
10986;DHT22;5546;48.714;8.738;2022-11-14T09:47:47;10.30;96.90
10986;DHT22;5546;48.714;8.738;2022-11-14T09:50:20;10.10;97.40
10986;DHT22;5546;48.714;8.738;2022-11-14T09:52:55;10.10;97.80
10986;DHT22;5546;48.714;8.738;2022-11-14T09:55:32;10.00;97.80
10986;DHT22;5546;48.714;8.738;2022-11-14T09:58:00;10.20;97.70
10986;DHT22;5546;48.714;8.738;2022-11-14T10:00:42;10.20;97.90
10986;DHT22;5546;48.714;8.738;2022-11-14T10:03:29;10.10;98.20
10986;DHT22;5546;48.714;8.738;2022-11-14T10:11:40;10.60;97.30
10986;DHT22;5546;48.714;8.738;2022-11-14T10:19:40;10.80;97.40
10986;DHT22;5546;48.714;8.738;2022-11-14T10:22:30;10.80;97.70
10986;DHT22;5546;48.714;8.738;2022-11-14T10:28:13;11.30;97.10
10986;DHT22;5546;48.714;8.738;2022-11-14T10:33:56;11.20;97.20
10986;DHT22;5546;48.714;8.738;2022-11-14T10:39:21;11.40;97.30
10986;DHT22;5546;48.714;8.738;2022-11-14T10:41:51;11.70;96.90
10986;DHT22;5546;48.714;8.738;2022-11-14T10:44:23;11.90;96.10
10986;DHT22;5546;48.714;8.738;2022-11-14T10:46:54;11.90;96.30
10986;DHT22;5546;48.714;8.738;2022-11-14T10:49:22;11.60;96.40
10986;DHT22;5546;48.714;8.738;2022-11-14T10:51:57;11.70;96.60
10986;DHT22;5546;48.714;8.738;2022-11-14T10:57:27;11.80;96.80
10986;DHT22;5546;48.714;8.738;2022-11-14T10:59:53;12.00;96.20
10986;DHT22;5546;48.714;8.738;2022-11-14T11:02:19;12.00;96.50
10986;DHT22;5546;48.714;8.738;2022-11-14T11:04:45;11.90;96.60
10986;DHT22;5546;48.714;8.738;2022-11-14T11:10:00;12.30;96.70
10986;DHT22;5546;48.714;8.738;2022-11-14T11:12:52;12.50;96.50
10986;DHT22;5546;48.714;8.738;2022-11-14T11:15:29;12.50;95.90
10986;DHT22;5546;48.714;8.738;2022-11-14T11:18:40;12.40;96.20
10986;DHT22;5546;48.714;8.738;2022-11-14T11:21:07;12.40;96.40
10986;DHT22;5546;48.714;8.738;2022-11-14T11:23:33;12.60;96.10
10986;DHT22;5546;48.714;8.738;2022-11-14T11:26:14;12.90;95.80
10986;DHT22;5546;48.714;8.738;2022-11-14T11:28:40;12.90;96.00
10986;DHT22;5546;48.714;8.738;2022-11-14T11:31:08;13.10;96.00
10986;DHT22;5546;48.714;8.738;2022-11-14T11:33:35;13.20;96.30
10986;DHT22;5546;48.714;8.738;2022-11-14T11:36:10;13.80;95.50
10986;DHT22;5546;48.714;8.738;2022-11-14T11:38:36;13.80;95.60
10986;DHT22;5546;48.714;8.738;2022-11-14T11:41:22;13.80;95.80
10986;DHT22;5546;48.714;8.738;2022-11-14T11:44:03;13.50;96.20
10986;DHT22;5546;48.714;8.738;2022-11-14T11:46:53;13.30;96.60
10986;DHT22;5546;48.714;8.738;2022-11-14T11:49:34;13.30;97.00
10986;DHT22;5546;48.714;8.738;2022-11-14T11:52:05;13.50;96.90
10986;DHT22;5546;48.714;8.738;2022-11-14T11:54:48;13.40;96.60
10986;DHT22;5546;48.714;8.738;2022-11-14T11:57:17;13.50;96.70
10986;DHT22;5546;48.714;8.738;2022-11-14T11:59:47;13.60;96.90
10986;DHT22;5546;48.714;8.738;2022-11-14T12:02:27;14.00;96.60
10986;DHT22;5546;48.714;8.738;2022-11-14T12:04:54;14.10;96.70
10986;DHT22;5546;48.714;8.738;2022-11-14T12:07:28;14.40;96.60
10986;DHT22;5546;48.714;8.738;2022-11-14T12:09:56;14.50;96.80
10986;DHT22;5546;48.714;8.738;2022-11-14T12:18:05;14.40;95.00
10986;DHT22;5546;48.714;8.738;2022-11-14T12:20:55;14.70;94.70
10986;DHT22;5546;48.714;8.738;2022-11-14T12:26:27;15.20;95.30
10986;DHT22;5546;48.714;8.738;2022-11-14T12:29:24;15.40;94.10
10986;DHT22;5546;48.714;8.738;2022-11-14T12:31:57;15.60;94.20
10986;DHT22;5546;48.714;8.738;2022-11-14T12:34:27;15.90;93.60
10986;DHT22;5546;48.714;8.738;2022-11-14T12:36:55;15.80;93.90
10986;DHT22;5546;48.714;8.738;2022-11-14T12:39:30;16.30;94.20
10986;DHT22;5546;48.714;8.738;2022-11-14T12:42:10;16.40;93.80
10986;DHT22;5546;48.714;8.738;2022-11-14T12:44:39;16.10;94.40
10986;DHT22;5546;48.714;8.738;2022-11-14T12:49:55;15.70;94.70
10986;DHT22;5546;48.714;8.738;2022-11-14T13:00:32;16.10;95.10
10986;DHT22;5546;48.714;8.738;2022-11-14T13:03:30;15.90;94.60
10986;DHT22;5546;48.714;8.738;2022-11-14T13:06:08;15.90;94.60
10986;DHT22;5546;48.714;8.738;2022-11-14T13:11:52;16.10;95.20
10986;DHT22;5546;48.714;8.738;2022-11-14T13:14:52;16.40;94.80
10986;DHT22;5546;48.714;8.738;2022-11-14T13:17:38;16.30;94.70
10986;DHT22;5546;48.714;8.738;2022-11-14T13:20:31;16.20;95.10
10986;DHT22;5546;48.714;8.738;2022-11-14T13:33:42;15.30;94.80
10986;DHT22;5546;48.714;8.738;2022-11-14T13:36:17;15.20;93.60
10986;DHT22;5546;48.714;8.738;2022-11-14T13:50:35;15.90;95.30
10986;DHT22;5546;48.714;8.738;2022-11-14T13:53:13;15.70;95.00
10986;DHT22;5546;48.714;8.738;2022-11-14T13:56:34;16.00;95.00
10986;DHT22;5546;48.714;8.738;2022-11-14T13:58:48;15.70;95.30
10986;DHT22;5546;48.714;8.738;2022-11-14T14:01:40;15.60;96.00
10986;DHT22;5546;48.714;8.738;2022-11-14T14:07:26;15.50;96.00
10986;DHT22;5546;48.714;8.738;2022-11-14T14:10:23;15.60;95.60
10986;DHT22;5546;48.714;8.738;2022-11-14T14:27:15;14.10;94.80
10986;DHT22;5546;48.714;8.738;2022-11-14T14:30:16;14.40;94.60
10986;DHT22;5546;48.714;8.738;2022-11-14T14:32:41;14.80;94.30
10986;DHT22;5546;48.714;8.738;2022-11-14T14:35:25;14.70;94.30
10986;DHT22;5546;48.714;8.738;2022-11-14T14:37:54;14.60;95.90
10986;DHT22;5546;48.714;8.738;2022-11-14T14:40:35;14.60;95.00
10986;DHT22;5546;48.714;8.738;2022-11-14T14:43:04;14.20;94.60
10986;DHT22;5546;48.714;8.738;2022-11-14T14:45:35;14.30;94.90
10986;DHT22;5546;48.714;8.738;2022-11-14T14:48:05;14.50;96.70
10986;DHT22;5546;48.714;8.738;2022-11-14T14:50:37;14.60;96.50
10986;DHT22;5546;48.714;8.738;2022-11-14T14:53:04;14.50;96.30
10986;DHT22;5546;48.714;8.738;2022-11-14T14:55:32;14.60;96.20
10986;DHT22;5546;48.714;8.738;2022-11-14T15:00:39;14.60;96.80
10986;DHT22;5546;48.714;8.738;2022-11-14T15:03:16;14.50;96.70
10986;DHT22;5546;48.714;8.738;2022-11-14T15:05:42;14.30;96.70
10986;DHT22;5546;48.714;8.738;2022-11-14T15:08:12;14.40;97.00
10986;DHT22;5546;48.714;8.738;2022-11-14T15:10:38;14.30;96.70
10986;DHT22;5546;48.714;8.738;2022-11-14T15:13:04;14.30;96.90
10986;DHT22;5546;48.714;8.738;2022-11-14T15:15:30;14.40;96.60
10986;DHT22;5546;48.714;8.738;2022-11-14T15:18:01;14.20;96.50
10986;DHT22;5546;48.714;8.738;2022-11-14T15:20:29;14.20;96.80
10986;DHT22;5546;48.714;8.738;2022-11-14T15:25:35;13.90;97.40
10986;DHT22;5546;48.714;8.738;2022-11-14T15:28:02;13.50;97.90
10986;DHT22;5546;48.714;8.738;2022-11-14T15:30:31;13.50;98.10
10986;DHT22;5546;48.714;8.738;2022-11-14T15:33:03;13.20;98.40
10986;DHT22;5546;48.714;8.738;2022-11-14T15:38:04;13.30;98.40
10986;DHT22;5546;48.714;8.738;2022-11-14T15:40:31;13.40;97.60
10986;DHT22;5546;48.714;8.738;2022-11-14T15:42:57;13.50;97.90
10986;DHT22;5546;48.714;8.738;2022-11-14T15:45:28;13.00;98.00
10986;DHT22;5546;48.714;8.738;2022-11-14T15:48:10;12.70;98.60
10986;DHT22;5546;48.714;8.738;2022-11-14T15:50:36;12.70;98.50
10986;DHT22;5546;48.714;8.738;2022-11-14T15:53:04;12.70;98.70
10986;DHT22;5546;48.714;8.738;2022-11-14T15:55:31;12.70;98.20
10986;DHT22;5546;48.714;8.738;2022-11-14T15:57:56;12.80;98.40
10986;DHT22;5546;48.714;8.738;2022-11-14T16:00:22;12.80;98.50
10986;DHT22;5546;48.714;8.738;2022-11-14T16:02:57;12.60;98.80
10986;DHT22;5546;48.714;8.738;2022-11-14T16:05:29;12.60;98.60
10986;DHT22;5546;48.714;8.738;2022-11-14T16:07:55;12.60;98.60
10986;DHT22;5546;48.714;8.738;2022-11-14T16:10:25;12.60;98.50
10986;DHT22;5546;48.714;8.738;2022-11-14T16:12:51;12.70;98.70
10986;DHT22;5546;48.714;8.738;2022-11-14T16:15:18;12.50;98.70
10986;DHT22;5546;48.714;8.738;2022-11-14T16:17:46;12.80;98.50
10986;DHT22;5546;48.714;8.738;2022-11-14T16:20:18;12.30;98.80
10986;DHT22;5546;48.714;8.738;2022-11-14T16:22:45;12.40;99.20
10986;DHT22;5546;48.714;8.738;2022-11-14T16:25:19;12.40;98.80
10986;DHT22;5546;48.714;8.738;2022-11-14T16:27:45;12.70;98.40
10986;DHT22;5546;48.714;8.738;2022-11-14T16:30:15;12.30;98.90
10986;DHT22;5546;48.714;8.738;2022-11-14T16:32:42;12.40;99.20
10986;DHT22;5546;48.714;8.738;2022-11-14T16:35:22;12.40;98.70
10986;DHT22;5546;48.714;8.738;2022-11-14T16:37:48;12.50;98.50
10986;DHT22;5546;48.714;8.738;2022-11-14T16:40:15;12.40;99.20
10986;DHT22;5546;48.714;8.738;2022-11-14T16:42:41;12.40;99.40
10986;DHT22;5546;48.714;8.738;2022-11-14T16:45:07;12.30;99.40
10986;DHT22;5546;48.714;8.738;2022-11-14T16:47:32;12.40;99.20
10986;DHT22;5546;48.714;8.738;2022-11-14T16:49:58;12.70;98.80
10986;DHT22;5546;48.714;8.738;2022-11-14T16:52:25;12.50;99.10
10986;DHT22;5546;48.714;8.738;2022-11-14T16:54:51;12.60;98.80
10986;DHT22;5546;48.714;8.738;2022-11-14T16:57:16;12.60;99.10
10986;DHT22;5546;48.714;8.738;2022-11-14T16:59:42;12.50;99.10
10986;DHT22;5546;48.714;8.738;2022-11-14T17:02:12;12.50;98.70
10986;DHT22;5546;48.714;8.738;2022-11-14T17:04:39;12.60;98.70
10986;DHT22;5546;48.714;8.738;2022-11-14T17:07:07;12.80;98.60
10986;DHT22;5546;48.714;8.738;2022-11-14T17:09:32;12.80;98.80
10986;DHT22;5546;48.714;8.738;2022-11-14T17:11:58;12.80;98.40
10986;DHT22;5546;48.714;8.738;2022-11-14T17:14:23;12.80;98.70
10986;DHT22;5546;48.714;8.738;2022-11-14T17:16:49;12.80;98.90
10986;DHT22;5546;48.714;8.738;2022-11-14T17:19:14;12.80;98.80
10986;DHT22;5546;48.714;8.738;2022-11-14T17:21:40;12.90;98.40
10986;DHT22;5546;48.714;8.738;2022-11-14T17:24:05;12.90;98.70
10986;DHT22;5546;48.714;8.738;2022-11-14T17:26:31;12.90;98.50
10986;DHT22;5546;48.714;8.738;2022-11-14T17:28:57;12.90;98.80
10986;DHT22;5546;48.714;8.738;2022-11-14T17:31:22;12.80;98.80
10986;DHT22;5546;48.714;8.738;2022-11-14T17:33:52;12.40;99.60
10986;DHT22;5546;48.714;8.738;2022-11-14T17:36:17;12.50;99.30
10986;DHT22;5546;48.714;8.738;2022-11-14T17:38:43;12.50;99.50
10986;DHT22;5546;48.714;8.738;2022-11-14T17:41:09;12.70;99.50
10986;DHT22;5546;48.714;8.738;2022-11-14T17:43:35;12.90;98.50
10986;DHT22;5546;48.714;8.738;2022-11-14T17:46:01;12.20;99.30
10986;DHT22;5546;48.714;8.738;2022-11-14T17:48:27;11.90;99.90
10986;DHT22;5546;48.714;8.738;2022-11-14T17:50:52;11.90;99.90
10986;DHT22;5546;48.714;8.738;2022-11-14T17:53:18;12.10;99.90